createdAt,value
2019-05-06T00:00:24.519Z,93992.49
2019-05-06T00:01:27.439Z,94001.30
2019-05-06T00:02:30.233Z,93996.77
2019-05-06T00:03:34.402Z,93995.44
2019-05-06T00:04:37.263Z,93995.44
2019-05-06T00:05:40.117Z,93995.69
2019-05-06T00:06:43.970Z,93993.61
2019-05-06T00:07:54.529Z,93990.93
2019-05-06T00:08:57.201Z,93988.48
2019-05-06T00:09:59.957Z,93989.82
2019-05-06T00:11:04.750Z,93985.28
2019-05-06T00:12:07.124Z,93980.48
2019-05-06T00:13:09.897Z,93981.28
2019-05-06T00:14:14.119Z,93986.09
2019-05-06T00:15:16.973Z,93981.81
2019-05-06T00:16:19.887Z,93985.54
2019-05-06T00:17:23.927Z,93983.68
2019-05-06T00:18:26.914Z,93989.55
2019-05-06T00:19:29.695Z,93988.48
2019-05-06T00:20:34.576Z,93989.55
2019-05-06T00:21:36.861Z,93988.74
2019-05-06T00:22:39.678Z,93982.56
2019-05-06T00:23:47.080Z,93985.54
2019-05-06T00:24:54.768Z,93979.89
2019-05-06T00:26:03.919Z,93979.89
2019-05-06T00:27:14.214Z,93981.23
2019-05-06T00:28:24.861Z,93978.06
2019-05-06T00:29:28.698Z,93977.75
2019-05-06T00:30:31.528Z,93970.55
2019-05-06T00:31:34.665Z,93975.89
2019-05-06T00:32:37.416Z,93968.14
2019-05-06T00:33:40.197Z,93974.56
2019-05-06T00:34:43.667Z,93974.28
2019-05-06T00:35:46.575Z,93975.03
2019-05-06T00:36:49.332Z,93978.29
2019-05-06T00:37:53.656Z,93980.95
2019-05-06T00:38:58.140Z,93988.16
2019-05-06T00:40:04.537Z,93986.83
2019-05-06T00:41:08.530Z,93988.16
2019-05-06T00:42:15.711Z,93984.69
2019-05-06T00:43:18.485Z,93986.30
2019-05-06T00:44:21.232Z,93986.30
2019-05-06T00:45:24.374Z,93988.16
2019-05-06T00:46:27.252Z,93977.43
2019-05-06T00:47:30.011Z,93983.05
2019-05-06T00:48:34.183Z,93984.38
2019-05-06T00:49:37.129Z,93979.04
2019-05-06T00:50:39.930Z,93987.58
2019-05-06T00:51:43.955Z,93982.77
2019-05-06T00:52:46.931Z,93986.24
2019-05-06T00:53:51.328Z,93981.97
2019-05-06T00:54:54.806Z,93982.77
2019-05-06T00:55:57.677Z,93980.91
2019-05-06T00:57:00.455Z,93983.05
2019-05-06T00:58:04.026Z,93982.23
2019-05-06T00:59:06.965Z,93978.77
2019-05-06T01:00:09.806Z,93978.48
2019-05-06T01:01:24.055Z,93973.42
2019-05-06T01:02:17.277Z,93980.09
2019-05-06T01:03:20.036Z,93983.30
2019-05-06T01:04:24.506Z,93979.83
2019-05-06T01:05:27.365Z,93981.66
2019-05-06T01:06:30.273Z,93978.77
2019-05-06T01:07:34.463Z,93975.29
2019-05-06T01:08:37.313Z,93972.31
2019-05-06T01:09:40.075Z,93977.66
2019-05-06T01:10:44.820Z,93973.16
2019-05-06T01:11:49.080Z,93969.14
2019-05-06T01:12:59.713Z,93971.52
2019-05-06T01:14:04.206Z,93974.98
2019-05-06T01:15:09.000Z,93978.98
2019-05-06T01:16:13.138Z,93982.19
2019-05-06T01:17:16.010Z,93977.38
2019-05-06T01:18:18.774Z,93975.52
2019-05-06T01:19:23.463Z,93976.31
2019-05-06T01:20:25.941Z,93976.09
2019-05-06T01:21:28.702Z,93974.98
2019-05-06T01:22:31.460Z,93975.82
2019-05-06T01:23:34.296Z,93972.84
2019-05-06T01:24:37.169Z,93982.19
2019-05-06T01:25:39.946Z,93973.59
2019-05-06T01:26:44.377Z,93973.91
2019-05-06T01:27:47.289Z,93980.58
2019-05-06T01:28:50.071Z,93981.11
2019-05-06T01:29:54.434Z,93980.05
2019-05-06T01:30:57.213Z,93978.94
2019-05-06T01:31:59.997Z,93980.80
2019-05-06T01:33:03.973Z,93983.47
2019-05-06T01:34:06.908Z,93977.85
2019-05-06T01:35:09.749Z,93982.13
2019-05-06T01:36:14.194Z,93980.27
2019-05-06T01:37:17.069Z,93976.27
2019-05-06T01:38:21.515Z,93977.05
2019-05-06T01:39:43.881Z,93973.05
2019-05-06T01:40:57.206Z,93975.46
2019-05-06T01:42:04.617Z,93975.72
2019-05-06T01:43:09.467Z,93973.84
2019-05-06T01:44:13.648Z,93967.41
2019-05-06T01:45:16.701Z,93963.66
2019-05-06T01:46:19.442Z,93968.45
2019-05-06T01:47:23.770Z,93962.59
2019-05-06T01:48:44.672Z,93969.27
2019-05-06T01:49:47.550Z,93972.99
2019-05-06T01:50:50.307Z,93973.80
2019-05-06T01:51:54.617Z,93976.19
2019-05-06T01:52:57.603Z,93987.14
2019-05-06T01:54:00.424Z,93985.81
2019-05-06T01:55:04.809Z,93993.81
2019-05-06T01:56:07.649Z,93990.88
2019-05-06T01:57:10.417Z,93983.89
2019-05-06T01:58:14.571Z,93985.53
2019-05-06T01:59:17.431Z,93991.38
2019-05-06T02:00:20.373Z,93991.67
2019-05-06T02:01:25.132Z,93990.29
2019-05-06T02:02:27.538Z,93992.95
2019-05-06T02:03:30.305Z,93989.76
2019-05-06T02:04:33.721Z,93994.56
2019-05-06T02:05:36.872Z,93992.70
2019-05-06T02:06:39.630Z,93987.63
2019-05-06T02:07:44.125Z,93983.62
2019-05-06T02:08:46.817Z,93982.00
2019-05-06T02:09:49.573Z,93981.48
2019-05-06T02:10:54.378Z,93979.34
2019-05-06T02:11:56.777Z,93981.70
2019-05-06T02:12:59.535Z,93987.34
2019-05-06T02:14:04.579Z,93981.17
2019-05-06T02:15:06.889Z,93988.37
2019-05-06T02:16:09.688Z,93980.36
2019-05-06T02:17:14.336Z,93987.03
2019-05-06T02:18:18.489Z,93987.84
2019-05-06T02:19:21.248Z,93981.42
2019-05-06T02:20:24.652Z,93978.98
2019-05-06T02:21:29.104Z,93982.76
2019-05-06T02:22:44.287Z,93977.42
2019-05-06T02:23:54.280Z,93982.23
2019-05-06T02:25:11.091Z,93972.61
2019-05-06T02:26:14.242Z,93975.03
2019-05-06T02:27:17.091Z,93978.75
2019-05-06T02:28:19.869Z,93976.09
2019-05-06T02:29:27.223Z,93971.50
2019-05-06T02:30:36.565Z,93977.09
2019-05-06T02:31:40.723Z,93985.15
2019-05-06T02:32:51.018Z,93980.31
2019-05-06T02:34:05.163Z,93977.89
2019-05-06T02:35:14.950Z,93981.59
2019-05-06T02:36:21.761Z,93981.59
2019-05-06T02:37:46.042Z,93977.59
2019-05-06T02:38:51.443Z,93976.56
2019-05-06T02:39:53.430Z,93977.59
2019-05-06T02:40:55.610Z,93976.56
2019-05-06T02:41:58.452Z,93980.84
2019-05-06T02:43:03.340Z,93978.42
2019-05-06T02:44:09.926Z,93972.78
2019-05-06T02:45:12.586Z,93976.25
2019-05-06T02:46:14.428Z,93979.76
2019-05-06T02:47:24.838Z,93985.59
2019-05-06T02:48:35.008Z,93985.59
2019-05-06T02:49:39.406Z,93984.26
2019-05-06T02:50:46.752Z,93981.59
2019-05-06T02:51:49.505Z,93978.92
2019-05-06T02:52:53.812Z,93975.45
2019-05-06T02:53:56.729Z,93982.65
2019-05-06T02:54:59.493Z,93983.98
2019-05-06T02:56:04.034Z,93983.70
2019-05-06T02:57:06.676Z,93989.85
2019-05-06T02:58:09.469Z,93984.52
2019-05-06T02:59:12.888Z,93986.66
2019-05-06T03:00:17.377Z,93984.23
2019-05-06T03:01:23.050Z,93985.57
2019-05-06T03:02:37.919Z,93992.24
2019-05-06T03:03:28.925Z,93991.72
2019-05-06T03:04:33.211Z,93989.57
2019-05-06T03:05:36.246Z,93987.18
2019-05-06T03:06:39.015Z,93995.46
2019-05-06T03:07:43.556Z,93986.38
2019-05-06T03:08:46.193Z,93990.07
2019-05-06T03:09:48.887Z,93986.33
2019-05-06T03:10:53.405Z,93986.59
2019-05-06T03:11:56.155Z,93987.13
2019-05-06T03:12:58.899Z,93989.80
2019-05-06T03:14:03.251Z,93994.86
2019-05-06T03:15:06.464Z,93997.52
2019-05-06T03:16:09.242Z,93996.69
2019-05-06T03:17:13.965Z,93998.55
2019-05-06T03:18:16.400Z,93998.00
2019-05-06T03:19:19.390Z,94002.28
2019-05-06T03:20:43.951Z,93992.94
2019-05-06T03:22:03.202Z,93993.69
2019-05-06T03:23:06.708Z,93995.02
2019-05-06T03:24:16.953Z,93994.22
2019-05-06T03:25:24.060Z,93992.36
2019-05-06T03:26:25.682Z,93993.16
2019-05-06T03:27:28.429Z,93989.69
2019-05-06T03:28:33.316Z,93989.69
2019-05-06T03:29:35.662Z,93993.41
2019-05-06T03:30:38.433Z,93993.41
2019-05-06T03:31:45.793Z,93995.55
2019-05-06T03:33:20.998Z,93998.75
2019-05-06T03:34:08.928Z,93999.55
2019-05-06T03:35:16.068Z,94000.89
2019-05-06T03:36:13.729Z,94000.36
2019-05-06T03:37:07.633Z,94003.55
2019-05-06T03:38:07.640Z,94005.89
2019-05-06T03:39:13.700Z,94011.52
2019-05-06T03:40:14.939Z,94003.75
2019-05-06T03:41:17.768Z,94004.09
2019-05-06T03:42:22.977Z,94011.41
2019-05-06T03:43:24.898Z,94012.34
2019-05-06T03:44:27.722Z,94011.10
2019-05-06T03:45:53.488Z,94014.62
2019-05-06T03:47:13.981Z,94016.14
2019-05-06T03:48:23.821Z,94015.95
2019-05-06T03:49:27.446Z,94010.56
2019-05-06T03:50:33.485Z,94008.78
2019-05-06T03:51:34.678Z,94009.52
2019-05-06T03:52:37.502Z,94007.63
2019-05-06T03:53:43.394Z,94011.78
2019-05-06T03:54:45.948Z,94014.62
2019-05-06T03:55:50.156Z,94017.04
2019-05-06T03:56:53.761Z,94008.09
2019-05-06T03:57:57.159Z,94010.22
2019-05-06T03:59:02.684Z,94016.14
2019-05-06T04:00:05.390Z,94020.09
2019-05-06T04:01:08.406Z,94014.64
2019-05-06T04:02:13.241Z,94015.07
2019-05-06T04:03:16.314Z,94016.00
2019-05-06T04:04:19.069Z,94015.53
2019-05-06T04:05:23.764Z,94015.07
2019-05-06T04:06:26.937Z,94014.02
2019-05-06T04:07:29.737Z,94021.83
2019-05-06T04:08:34.171Z,94017.39
2019-05-06T04:09:37.358Z,94012.05
2019-05-06T04:10:43.257Z,94015.28
2019-05-06T04:11:45.521Z,94011.28
2019-05-06T04:12:53.051Z,94015.34
2019-05-06T04:13:54.757Z,94016.73
2019-05-06T04:14:57.519Z,94006.06
2019-05-06T04:16:03.756Z,94007.39
2019-05-06T04:17:17.356Z,94018.13
2019-05-06T04:18:24.789Z,94014.40
2019-05-06T04:19:33.336Z,94010.71
2019-05-06T04:20:43.384Z,94014.98
2019-05-06T04:21:46.941Z,94020.11
2019-05-06T04:23:00.221Z,94016.38
2019-05-06T04:24:16.796Z,94018.52
2019-05-06T04:25:37.517Z,94019.91
2019-05-06T04:26:46.433Z,94027.45
2019-05-06T04:27:53.679Z,94026.64
2019-05-06T04:28:55.781Z,94024.25
2019-05-06T04:29:59.025Z,94022.39
2019-05-06T04:31:02.632Z,94021.36
2019-05-06T04:32:05.546Z,94027.28
2019-05-06T04:33:12.659Z,94022.75
2019-05-06T04:34:18.253Z,94013.50
2019-05-06T04:35:17.221Z,94018.59
2019-05-06T04:36:19.920Z,94011.39
2019-05-06T04:37:24.191Z,94020.51
2019-05-06T04:38:27.243Z,94015.98
2019-05-06T04:39:33.114Z,94014.92
2019-05-06T04:40:34.815Z,94010.70
2019-05-06T04:41:37.570Z,94009.95
2019-05-06T04:42:43.887Z,94009.95
2019-05-06T04:43:45.009Z,94005.70
2019-05-06T04:44:47.801Z,94002.00
2019-05-06T04:45:53.702Z,94004.95
2019-05-06T04:46:54.985Z,94005.00
2019-05-06T04:47:57.739Z,94009.81
2019-05-06T04:49:03.942Z,94009.81
2019-05-06T04:50:07.186Z,94011.42
2019-05-06T04:51:09.929Z,94011.73
2019-05-06T04:52:14.201Z,94014.95
2019-05-06T04:53:17.162Z,94013.92
2019-05-06T04:54:19.912Z,94018.51
2019-05-06T04:55:22.717Z,94018.78
2019-05-06T04:56:25.460Z,94018.03
2019-05-06T04:57:28.232Z,94018.31
2019-05-06T04:58:33.423Z,94018.59
2019-05-06T04:59:35.679Z,94014.89
2019-05-06T05:00:38.969Z,94014.97
2019-05-06T05:01:41.718Z,94014.75
2019-05-06T05:02:46.481Z,94010.80
2019-05-06T05:03:49.069Z,94010.55
2019-05-06T05:04:53.029Z,94010.12
2019-05-06T05:05:56.101Z,94008.56
2019-05-06T05:06:58.917Z,94013.09
2019-05-06T05:08:02.462Z,94009.94
2019-05-06T05:09:05.816Z,94010.03
2019-05-06T05:10:12.453Z,94013.06
2019-05-06T05:11:22.739Z,94014.01
2019-05-06T05:12:39.033Z,94021.90
2019-05-06T05:13:49.031Z,94019.87
2019-05-06T05:14:53.433Z,94026.00
2019-05-06T05:16:02.269Z,94025.72
2019-05-06T05:17:16.002Z,94020.85
2019-05-06T05:18:32.394Z,94025.37
2019-05-06T05:19:35.459Z,94026.88
2019-05-06T05:20:44.118Z,94020.27
2019-05-06T05:21:42.934Z,94023.45
2019-05-06T05:22:46.157Z,94027.91
2019-05-06T05:23:48.912Z,94023.28
2019-05-06T05:24:52.235Z,94026.59
2019-05-06T05:25:55.059Z,94033.09
2019-05-06T05:26:58.006Z,94034.32
2019-05-06T05:28:02.159Z,94036.58
2019-05-06T05:29:05.069Z,94038.19
2019-05-06T05:30:07.932Z,94045.97
2019-05-06T05:31:12.297Z,94041.33
2019-05-06T05:32:15.164Z,94040.52
2019-05-06T05:33:17.961Z,94034.54
2019-05-06T05:34:22.467Z,94034.23
2019-05-06T05:35:25.308Z,94031.93
2019-05-06T05:36:28.098Z,94034.19
2019-05-06T05:37:32.712Z,94030.45
2019-05-06T05:38:35.449Z,94032.69
2019-05-06T05:39:38.185Z,94034.02
2019-05-06T05:40:42.855Z,94033.37
2019-05-06T05:41:45.648Z,94036.20
2019-05-06T05:42:51.652Z,94039.13
2019-05-06T05:43:59.202Z,94036.95
2019-05-06T05:45:02.718Z,94031.55
2019-05-06T05:46:05.583Z,94033.80
2019-05-06T05:47:08.642Z,94027.45
2019-05-06T05:48:29.489Z,94022.73
2019-05-06T05:49:34.209Z,94018.41
2019-05-06T05:50:42.071Z,94014.66
2019-05-06T05:51:44.988Z,94014.88
2019-05-06T05:52:47.750Z,94015.47
2019-05-06T05:53:52.289Z,94023.53
2019-05-06T05:54:55.624Z,94016.41
2019-05-06T05:55:58.496Z,94020.30
2019-05-06T05:57:02.395Z,94013.17
2019-05-06T05:58:05.532Z,94021.69
2019-05-06T05:59:08.400Z,94023.62
2019-05-06T06:00:12.933Z,94017.06
2019-05-06T06:01:15.796Z,94021.88
2019-05-06T06:02:18.552Z,94021.76
2019-05-06T06:03:22.066Z,94016.77
2019-05-06T06:04:24.955Z,94024.90
2019-05-06T06:05:27.759Z,94015.47
2019-05-06T06:06:32.974Z,94015.39
2019-05-06T06:07:35.216Z,94014.65
2019-05-06T06:08:38.222Z,94017.14
2019-05-06T06:09:42.723Z,94008.61
2019-05-06T06:10:47.151Z,94013.41
2019-05-06T06:11:53.261Z,94010.31
2019-05-06T06:12:56.165Z,94020.45
2019-05-06T06:14:02.873Z,94018.97
2019-05-06T06:15:07.545Z,94020.67
2019-05-06T06:16:14.696Z,94013.92
2019-05-06T06:17:23.266Z,94011.64
2019-05-06T06:18:30.604Z,94013.03
2019-05-06T06:19:35.204Z,94016.78
2019-05-06T06:20:58.006Z,94016.23
2019-05-06T06:22:02.761Z,94020.45
2019-05-06T06:23:07.530Z,94017.78
2019-05-06T06:24:26.994Z,94020.23
2019-05-06T06:25:29.963Z,94018.11
2019-05-06T06:26:32.884Z,94016.03
2019-05-06T06:27:49.081Z,94014.22
2019-05-06T06:28:52.536Z,94009.99
2019-05-06T06:29:55.700Z,94017.86
2019-05-06T06:31:03.134Z,94008.61
2019-05-06T06:32:16.760Z,94013.27
2019-05-06T06:33:22.152Z,94021.39
2019-05-06T06:34:37.590Z,94024.97
2019-05-06T06:35:42.641Z,94027.73
2019-05-06T06:37:05.394Z,94027.31
2019-05-06T06:38:09.818Z,94027.44
2019-05-06T06:39:14.235Z,94026.48
2019-05-06T06:40:18.738Z,94026.84
2019-05-06T06:41:22.800Z,94025.61
2019-05-06T06:42:25.905Z,94020.84
2019-05-06T06:43:28.678Z,94029.98
2019-05-06T06:44:33.195Z,94028.66
2019-05-06T06:45:36.339Z,94031.47
2019-05-06T06:46:39.124Z,94030.54
2019-05-06T06:47:42.534Z,94031.39
2019-05-06T06:48:45.457Z,94027.95
2019-05-06T06:49:48.204Z,94026.15
2019-05-06T06:50:52.264Z,94030.11
2019-05-06T06:51:55.217Z,94025.27
2019-05-06T06:52:57.974Z,94022.14
2019-05-06T06:54:02.463Z,94019.66
2019-05-06T06:55:06.283Z,94014.97
2019-05-06T06:56:22.514Z,94006.49
2019-05-06T06:57:34.498Z,94007.00
2019-05-06T06:58:38.937Z,94006.45
2019-05-06T06:59:46.606Z,94005.03
2019-05-06T07:00:53.171Z,94006.56
2019-05-06T07:02:02.981Z,94007.59
2019-05-06T07:03:16.706Z,94004.04
2019-05-06T07:04:33.634Z,94008.16
2019-05-06T07:05:38.127Z,94011.72
2019-05-06T07:06:42.524Z,94011.41
2019-05-06T07:07:47.630Z,94006.98
2019-05-06T07:08:51.683Z,94006.80
2019-05-06T07:09:54.262Z,94005.42
2019-05-06T07:10:57.031Z,94006.62
2019-05-06T07:11:59.846Z,94006.18
2019-05-06T07:13:03.122Z,94007.64
2019-05-06T07:14:06.832Z,94007.94
2019-05-06T07:15:09.737Z,94004.05
2019-05-06T07:16:12.542Z,94005.04
2019-05-06T07:17:15.322Z,94004.23
2019-05-06T07:18:18.082Z,94005.17
2019-05-06T07:19:22.965Z,94004.69
2019-05-06T07:20:33.347Z,94008.22
2019-05-06T07:21:54.369Z,94004.84
2019-05-06T07:22:57.130Z,94001.22
2019-05-06T07:24:02.049Z,94006.36
2019-05-06T07:25:07.574Z,93999.36
2019-05-06T07:26:12.253Z,94004.94
2019-05-06T07:27:16.641Z,94000.88
2019-05-06T07:28:19.407Z,94005.91
2019-05-06T07:29:26.326Z,94003.41
2019-05-06T07:30:33.617Z,94010.57
2019-05-06T07:31:36.409Z,94007.00
2019-05-06T07:32:39.177Z,94002.80
2019-05-06T07:33:42.879Z,94007.39
2019-05-06T07:34:45.804Z,94004.06
2019-05-06T07:35:48.565Z,94005.95
2019-05-06T07:36:52.478Z,94004.13
2019-05-06T07:37:55.553Z,93998.27
2019-05-06T07:38:58.313Z,93998.88
2019-05-06T07:40:03.109Z,93995.80
2019-05-06T07:41:14.717Z,93992.70
2019-05-06T07:42:22.668Z,93991.38
2019-05-06T07:43:42.601Z,93987.58
2019-05-06T07:45:06.587Z,93985.36
2019-05-06T07:46:14.258Z,93986.73
2019-05-06T07:47:18.708Z,93985.98
2019-05-06T07:48:22.203Z,93976.62
2019-05-06T07:49:25.009Z,93981.17
2019-05-06T07:50:27.748Z,93978.91
2019-05-06T07:51:32.423Z,93982.23
2019-05-06T07:52:35.314Z,93983.61
2019-05-06T07:53:38.067Z,93984.11
2019-05-06T07:54:42.392Z,93983.53
2019-05-06T07:55:45.393Z,93982.27
2019-05-06T08:29:15.833Z,93997.75
2019-05-06T08:30:17.562Z,94004.50
2019-05-06T08:31:22.337Z,94009.58
2019-05-06T08:32:25.278Z,94019.95
2019-05-06T08:33:28.085Z,94022.08
2019-05-06T08:34:30.819Z,94023.52
2019-05-06T08:35:33.586Z,94028.28
2019-05-06T08:36:44.287Z,94031.98
2019-05-06T08:37:48.377Z,94032.77
2019-05-06T08:38:57.715Z,94036.47
2019-05-06T08:40:03.134Z,94036.69
2019-05-06T08:41:05.094Z,94043.59
2019-05-06T08:42:07.927Z,94048.91
2019-05-06T08:43:12.900Z,94042.98
2019-05-06T08:44:15.196Z,94047.09
2019-05-06T08:45:17.983Z,94046.28
2019-05-06T08:46:23.249Z,94050.63
2019-05-06T08:47:25.116Z,94050.29
2019-05-06T08:48:27.891Z,94060.11
2019-05-06T08:49:32.311Z,94060.87
2019-05-06T08:50:36.745Z,94064.33
2019-05-06T08:51:42.602Z,94074.09
2019-05-06T08:52:53.498Z,94082.05
2019-05-06T08:53:57.897Z,94084.45
2019-05-06T08:55:02.883Z,94086.54
2019-05-06T08:56:06.615Z,94086.48
2019-05-06T08:57:09.373Z,94097.70
2019-05-06T08:58:13.969Z,94093.11
2019-05-06T08:59:16.560Z,94099.50
2019-05-06T09:00:19.432Z,94106.34
2019-05-06T09:01:26.847Z,94107.98
2019-05-06T09:02:29.677Z,94107.68
2019-05-06T09:03:32.822Z,94104.15
2019-05-06T09:04:35.727Z,94107.88
2019-05-06T09:05:38.546Z,94106.23
2019-05-06T09:06:43.105Z,94110.23
2019-05-06T09:07:47.327Z,94108.16
2019-05-06T09:08:52.164Z,94108.16
2019-05-06T09:09:54.416Z,94102.34
2019-05-06T09:10:57.217Z,94102.65
2019-05-06T09:11:59.976Z,94100.25
2019-05-06T09:13:02.729Z,94106.23
2019-05-06T09:14:05.481Z,94098.02
2019-05-06T09:15:08.240Z,94098.83
2019-05-06T09:16:12.981Z,94100.97
2019-05-06T09:17:15.487Z,94094.83
2019-05-06T09:18:18.251Z,94100.47
2019-05-06T09:19:23.116Z,94100.47
2019-05-06T09:20:25.429Z,94096.80
2019-05-06T09:21:28.188Z,94093.93
2019-05-06T09:22:32.623Z,94091.84
2019-05-06T09:23:35.513Z,94092.92
2019-05-06T09:24:38.281Z,94095.59
2019-05-06T09:25:42.442Z,94086.50
2019-05-06T09:26:46.961Z,94092.31
2019-05-06T09:27:52.641Z,94088.84
2019-05-06T09:28:57.153Z,94093.59
2019-05-06T09:30:03.005Z,94086.65
2019-05-06T09:31:09.713Z,94093.02
2019-05-06T09:32:20.029Z,94091.63
2019-05-06T09:33:24.504Z,94089.48
2019-05-06T09:34:28.759Z,94092.41
2019-05-06T09:35:32.916Z,94096.16
2019-05-06T09:36:44.946Z,94100.16
2019-05-06T09:37:42.757Z,94095.63
2019-05-06T09:38:44.652Z,94097.50
2019-05-06T09:39:47.676Z,94097.27
2019-05-06T09:40:52.406Z,94093.02
2019-05-06T09:41:58.066Z,94100.80
2019-05-06T09:42:59.417Z,94100.00
2019-05-06T09:44:03.091Z,94094.66
2019-05-06T09:45:07.450Z,94086.39
2019-05-06T09:46:12.745Z,94090.67
2019-05-06T09:47:19.268Z,94090.67
2019-05-06T09:48:23.667Z,94091.79
2019-05-06T09:49:28.045Z,94092.92
2019-05-06T09:50:35.437Z,94089.36
2019-05-06T09:51:38.197Z,94089.91
2019-05-06T09:52:42.666Z,94085.53
2019-05-06T09:54:04.117Z,94085.63
2019-05-06T09:55:12.838Z,94078.42
2019-05-06T09:56:19.961Z,94081.34
2019-05-06T09:57:27.385Z,94081.34
2019-05-06T09:58:32.474Z,94077.62
2019-05-06T09:59:34.615Z,94084.07
2019-05-06T10:00:39.115Z,94080.06
2019-05-06T10:01:43.745Z,94081.67
2019-05-06T10:02:49.512Z,94080.39
2019-05-06T10:03:53.581Z,94079.42
2019-05-06T10:04:56.555Z,94073.86
2019-05-06T10:05:59.315Z,94075.20
2019-05-06T10:07:02.674Z,94077.33
2019-05-06T10:08:05.560Z,94076.00
2019-05-06T10:09:09.445Z,94081.03
2019-05-06T10:10:12.416Z,94074.08
2019-05-06T10:11:15.172Z,94082.09
2019-05-06T10:12:17.937Z,94081.03
2019-05-06T10:13:20.688Z,94078.31
2019-05-06T10:14:23.594Z,94078.31
2019-05-06T10:15:26.433Z,94078.89
2019-05-06T10:16:29.215Z,94066.11
2019-05-06T10:17:32.009Z,94071.98
2019-05-06T10:18:34.774Z,94073.32
2019-05-06T10:19:37.675Z,94073.06
2019-05-06T10:20:42.789Z,94069.06
2019-05-06T10:21:45.757Z,94072.03
2019-05-06T10:22:48.517Z,94068.78
2019-05-06T10:23:52.861Z,94066.16
2019-05-06T10:24:55.872Z,94063.23
2019-05-06T10:25:58.617Z,94065.42
2019-05-06T10:27:02.629Z,94063.28
2019-05-06T10:28:08.012Z,94060.56
2019-05-06T10:29:12.846Z,94063.00
2019-05-06T10:30:16.666Z,94061.94
2019-05-06T10:31:19.496Z,94061.23
2019-05-06T10:32:26.585Z,94059.36
2019-05-06T10:34:35.339Z,94050.59
2019-05-06T10:35:38.197Z,94054.55
2019-05-06T10:36:45.425Z,94052.68
2019-05-06T10:37:49.645Z,94046.23
2019-05-06T10:38:56.905Z,94050.59
2019-05-06T10:40:16.499Z,94049.80
2019-05-06T10:41:22.339Z,94043.11
2019-05-06T10:42:26.731Z,94041.55
2019-05-06T10:43:32.554Z,94042.36
2019-05-06T10:44:39.594Z,94037.77
2019-05-06T10:45:42.683Z,94035.08
2019-05-06T10:46:45.578Z,94029.43
2019-05-06T10:47:48.308Z,94036.33
2019-05-06T10:48:53.000Z,94035.52
2019-05-06T10:49:55.584Z,94041.63
2019-05-06T10:51:09.244Z,94038.38
2019-05-06T10:52:21.786Z,94039.44
2019-05-06T10:53:24.974Z,94034.64
2019-05-06T10:54:27.751Z,94034.45
2019-05-06T10:55:32.394Z,94029.06
2019-05-06T10:56:49.856Z,94029.64
2019-05-06T10:57:43.090Z,94033.87
2019-05-06T10:58:45.989Z,94036.86
2019-05-06T10:59:48.848Z,94028.84
2019-05-06T11:00:53.336Z,94032.01
2019-05-06T11:02:05.053Z,94029.06
2019-05-06T11:03:09.473Z,94031.73
2019-05-06T11:04:12.263Z,94036.28
2019-05-06T11:05:15.123Z,94036.77
2019-05-06T11:06:17.818Z,94039.98
2019-05-06T11:07:29.269Z,94037.84
2019-05-06T11:08:25.022Z,94041.05
2019-05-06T11:09:27.826Z,94045.05
2019-05-06T11:10:40.086Z,94044.52
2019-05-06T11:11:38.492Z,94039.18
2019-05-06T11:12:39.354Z,94049.34
2019-05-06T11:13:42.109Z,94045.31
2019-05-06T11:14:44.871Z,94050.13
2019-05-06T11:15:47.625Z,94046.88
2019-05-06T11:16:50.332Z,94044.73
2019-05-06T11:17:53.121Z,94053.81
2019-05-06T11:18:55.804Z,94059.11
2019-05-06T11:19:58.590Z,94048.69
2019-05-06T11:21:03.400Z,94052.42
2019-05-06T11:22:05.748Z,94052.12
2019-05-06T11:23:08.533Z,94056.92
2019-05-06T11:24:12.300Z,94058.80
2019-05-06T11:25:15.458Z,94067.61
2019-05-06T11:26:18.236Z,94065.44
2019-05-06T11:27:31.003Z,94072.95
2019-05-06T11:28:45.109Z,94068.11
2019-05-06T11:29:53.091Z,94071.31
2019-05-06T11:30:57.541Z,94063.39
2019-05-06T11:32:17.168Z,94073.06
2019-05-06T11:33:27.390Z,94082.47
2019-05-06T11:34:34.426Z,94082.52
2019-05-06T11:35:52.854Z,94073.97
2019-05-06T11:38:12.720Z,94083.09
2019-05-06T11:39:15.494Z,94087.11
2019-05-06T11:40:19.506Z,94085.77
2019-05-06T11:41:23.394Z,94084.13
2019-05-06T11:42:32.032Z,94074.50
2019-05-06T11:43:32.443Z,94076.11
2019-05-06T11:44:35.190Z,94060.61
2019-05-06T11:45:37.988Z,94061.14
2019-05-06T11:46:42.856Z,94061.14
2019-05-06T11:47:45.149Z,94051.25
2019-05-06T11:48:47.904Z,94055.27
2019-05-06T11:49:55.850Z,94060.91
2019-05-06T11:52:02.202Z,94049.16
2019-05-06T11:53:04.449Z,94047.82
2019-05-06T11:54:16.504Z,94046.23
2019-05-06T11:56:14.928Z,94034.45
2019-05-06T11:57:17.699Z,94037.12
2019-05-06T11:58:38.441Z,94040.13
2019-05-06T11:59:43.339Z,94028.09
2019-05-06T12:00:45.618Z,94031.57
2019-05-06T12:01:53.534Z,94031.88
2019-05-06T12:02:56.532Z,94037.22
2019-05-06T12:03:59.349Z,94041.50
2019-05-06T12:05:02.406Z,94054.88
2019-05-06T12:06:05.387Z,94057.27
2019-05-06T12:07:11.105Z,94056.97
2019-05-06T12:08:15.381Z,94068.19
2019-05-06T12:09:17.401Z,94053.75
2019-05-06T12:10:22.343Z,94056.11
2019-05-06T12:11:24.685Z,94052.89
2019-05-06T12:12:27.431Z,94052.89
2019-05-06T12:13:30.193Z,94058.23
2019-05-06T12:14:32.960Z,94056.59
2019-05-06T12:15:35.713Z,94061.94
2019-05-06T12:16:38.522Z,94057.08
2019-05-06T12:17:42.140Z,94061.34
2019-05-06T12:18:45.149Z,94065.31
2019-05-06T12:19:47.841Z,94050.56
2019-05-06T12:20:52.720Z,94059.66
2019-05-06T12:21:55.033Z,94058.63
2019-05-06T12:22:57.786Z,94062.33
2019-05-06T12:24:02.684Z,94057.03
2019-05-06T12:25:06.436Z,94058.37
2019-05-06T12:26:10.059Z,94053.07
2019-05-06T12:27:14.498Z,94052.27
2019-05-06T12:28:17.659Z,94053.83
2019-05-06T12:29:20.593Z,94053.07
2019-05-06T12:30:24.535Z,94057.61
2019-05-06T12:31:27.324Z,94058.14
2019-05-06T12:32:33.157Z,94065.63
2019-05-06T12:33:37.788Z,94062.91
2019-05-06T12:34:42.834Z,94061.05
2019-05-06T12:35:45.912Z,94067.98
2019-05-06T12:36:52.614Z,94060.81
2019-05-06T12:37:56.383Z,94062.70
2019-05-06T12:39:18.450Z,94063.00
2019-05-06T12:40:20.801Z,94061.67
2019-05-06T12:41:23.636Z,94059.53
2019-05-06T12:42:33.113Z,94063.54
2019-05-06T12:43:36.991Z,94067.82
2019-05-06T12:44:39.742Z,94069.38
2019-05-06T12:45:44.064Z,94072.63
2019-05-06T12:47:05.072Z,94072.05
2019-05-06T12:48:09.486Z,94075.03
2019-05-06T12:49:12.729Z,94068.63
2019-05-06T12:50:15.849Z,94068.35
2019-05-06T12:51:18.625Z,94065.68
2019-05-06T12:52:23.119Z,94066.71
2019-05-06T12:53:25.833Z,94066.91
2019-05-06T12:54:28.632Z,94063.72
2019-05-06T12:55:33.486Z,94067.17
2019-05-06T12:56:35.893Z,94061.30
2019-05-06T12:57:38.685Z,94056.70
2019-05-06T12:58:44.045Z,94061.52
2019-05-06T12:59:45.917Z,94059.38
2019-05-06T13:00:48.683Z,94062.81
2019-05-06T13:01:54.010Z,94058.27
2019-05-06T13:02:55.864Z,94052.70
2019-05-06T13:03:58.670Z,94051.84
2019-05-06T13:05:03.910Z,94049.17
2019-05-06T13:06:08.336Z,94049.93
2019-05-06T13:07:13.110Z,94051.05
2019-05-06T13:08:20.314Z,94045.65
2019-05-06T13:09:22.504Z,94039.20
2019-05-06T13:10:24.953Z,94033.63
2019-05-06T13:11:27.719Z,94032.82
2019-05-06T13:12:33.526Z,94033.58
2019-05-06T13:13:35.646Z,94036.83
2019-05-06T13:14:38.446Z,94029.31
2019-05-06T13:15:43.480Z,94024.22
2019-05-06T13:16:45.638Z,94019.94
2019-05-06T13:17:48.407Z,94014.30
2019-05-06T13:18:54.162Z,94003.91